KTOR

Details ICAO KTOR
Name TORRINGTON MUNI
Region United States
Timezone America/Denver (UTC-7.0)
Plans Departing 4
Arriving 2
Stats Elevation 4,205 ft / 1,282 m (AMSL)
Location 42.064863° -104.151895°
Runways 2
Magnetic Variation 7.948° E
Sunrise 2017-12-17 14:20:46 UTC / 2017-12-17 07:20:46 Local
Sunset 2017-12-17 23:27:42 UTC / 2017-12-17 16:27:42 Local
Advertisement - Login to hide

Runways

ID Width Length Bearing (true) Bearing (mag) Surface Threshold Offset Overrun Length
02 59 ft / 18 m 3,004 ft / 916 m 28.43° 20.48° Asphalt 0 ft / 0 m 0 ft / 0 m
10 75 ft / 23 m 5,688 ft / 1,734 m 115.59° 107.64° Asphalt 0 ft / 0 m 0 ft / 0 m
20 59 ft / 18 m 3,004 ft / 916 m 208.44° 200.49° Asphalt 0 ft / 0 m 0 ft / 0 m
28 75 ft / 23 m 5,688 ft / 1,734 m 295.61° 287.66° Asphalt 0 ft / 0 m 0 ft / 0 m

Map

Weather


0- 5 10 15 20 25 30 35+ Temperature / ° C

Clouds and Precipitation
Forecast for 2017-12-18 00:00 UTC. Updated 31 minutes ago

Ground ~20,000 ft ~40,000 ft Winds

METAR

KTOR 172253Z AUTO 27013KT 10SM CLR 07/M09 A2983 RMK AO2 SLP112 T00671089

TAF

Not found

Frequencies

Recorded 118.37 MHz ASOS
Unicom 122.80 MHz CTAF/UNICOM
Warning: Do not use this data for real-world aviation or navigation. No guarantee of current accuracy is given.